sensor_id;sensor_type;location;lat;lon;timestamp;pressure;altitude;pressure_sealevel;temperature;humidity
13033;BME280;6583;42.632;23.298;2022-07-25T00:00:08;92637.41;;;25.42;68.55
13033;BME280;6583;42.632;23.298;2022-07-25T00:02:36;92644.75;;;25.42;68.55
13033;BME280;6583;42.632;23.298;2022-07-25T00:05:04;92645.91;;;25.37;68.62
13033;BME280;6583;42.632;23.298;2022-07-25T00:07:30;92635.78;;;25.34;67.35
13033;BME280;6583;42.632;23.298;2022-07-25T00:09:57;92638.50;;;25.34;67.22
13033;BME280;6583;42.632;23.298;2022-07-25T00:12:24;92640.06;;;25.35;67.36
13033;BME280;6583;42.632;23.298;2022-07-25T00:14:51;92643.56;;;25.36;67.80
13033;BME280;6583;42.632;23.298;2022-07-25T00:17:17;92640.47;;;25.37;67.20
13033;BME280;6583;42.632;23.298;2022-07-25T00:19:45;92646.28;;;25.39;67.93
13033;BME280;6583;42.632;23.298;2022-07-25T00:22:12;92643.56;;;25.36;67.72
13033;BME280;6583;42.632;23.298;2022-07-25T00:24:39;92644.34;;;25.36;67.77
13033;BME280;6583;42.632;23.298;2022-07-25T00:27:05;92640.06;;;25.31;67.54
13033;BME280;6583;42.632;23.298;2022-07-25T00:29:32;92643.91;;;25.30;67.35
13033;BME280;6583;42.632;23.298;2022-07-25T00:31:59;92634.22;;;25.33;68.64
13033;BME280;6583;42.632;23.298;2022-07-25T00:34:25;92631.09;;;25.31;67.73
13033;BME280;6583;42.632;23.298;2022-07-25T00:36:53;92623.72;;;25.28;68.18
13033;BME280;6583;42.632;23.298;2022-07-25T00:39:20;92617.50;;;25.27;68.21
13033;BME280;6583;42.632;23.298;2022-07-25T00:41:47;92612.00;;;25.20;68.77
13033;BME280;6583;42.632;23.298;2022-07-25T00:44:22;92617.00;;;25.07;68.63
13033;BME280;6583;42.632;23.298;2022-07-25T00:46:49;92622.38;;;25.04;68.47
13033;BME280;6583;42.632;23.298;2022-07-25T00:49:15;92626.25;;;25.03;68.37
13033;BME280;6583;42.632;23.298;2022-07-25T00:51:43;92607.66;;;25.05;68.46
13033;BME280;6583;42.632;23.298;2022-07-25T00:54:11;92606.06;;;25.04;68.94
13033;BME280;6583;42.632;23.298;2022-07-25T00:56:38;92611.50;;;25.00;68.12
13033;BME280;6583;42.632;23.298;2022-07-25T00:59:05;92609.19;;;24.99;68.26
13033;BME280;6583;42.632;23.298;2022-07-25T01:01:32;92619.25;;;25.02;67.43
13033;BME280;6583;42.632;23.298;2022-07-25T01:03:58;92615.78;;;25.01;68.28
13033;BME280;6583;42.632;23.298;2022-07-25T01:06:25;92615.41;;;25.03;69.42
13033;BME280;6583;42.632;23.298;2022-07-25T01:08:53;92614.59;;;24.99;68.42
13033;BME280;6583;42.632;23.298;2022-07-25T01:11:21;92613.03;;;24.98;68.49
13033;BME280;6583;42.632;23.298;2022-07-25T01:13:48;92616.16;;;25.03;68.29
13033;BME280;6583;42.632;23.298;2022-07-25T01:16:15;92610.72;;;25.00;67.99
13033;BME280;6583;42.632;23.298;2022-07-25T01:18:42;92617.31;;;24.99;67.86
13033;BME280;6583;42.632;23.298;2022-07-25T01:21:10;92615.78;;;25.01;68.46
13033;BME280;6583;42.632;23.298;2022-07-25T01:23:38;92616.50;;;24.94;68.22
13033;BME280;6583;42.632;23.298;2022-07-25T01:26:05;92610.66;;;24.92;68.14
13033;BME280;6583;42.632;23.298;2022-07-25T01:28:32;92615.72;;;24.94;68.67
13033;BME280;6583;42.632;23.298;2022-07-25T01:30:59;92610.66;;;24.92;69.56
13033;BME280;6583;42.632;23.298;2022-07-25T01:33:25;92616.06;;;24.89;70.17
13033;BME280;6583;42.632;23.298;2022-07-25T01:35:52;92622.66;;;24.88;69.84
13033;BME280;6583;42.632;23.298;2022-07-25T01:38:20;92616.44;;;24.87;70.34
13033;BME280;6583;42.632;23.298;2022-07-25T01:40:47;92611.38;;;24.82;70.00
13033;BME280;6583;42.632;23.298;2022-07-25T01:43:13;92612.91;;;24.80;70.01
13033;BME280;6583;42.632;23.298;2022-07-25T01:45:40;92615.56;;;24.72;70.25
13033;BME280;6583;42.632;23.298;2022-07-25T01:48:07;92613.63;;;24.69;70.17
13033;BME280;6583;42.632;23.298;2022-07-25T01:50:33;92619.41;;;24.68;69.59
13033;BME280;6583;42.632;23.298;2022-07-25T01:53:00;92621.72;;;24.66;69.50
13033;BME280;6583;42.632;23.298;2022-07-25T01:55:28;92618.97;;;24.62;68.57
13033;BME280;6583;42.632;23.298;2022-07-25T01:57:55;92620.09;;;24.57;67.89
13033;BME280;6583;42.632;23.298;2022-07-25T02:00:22;92624.66;;;24.53;66.93
13033;BME280;6583;42.632;23.298;2022-07-25T02:02:48;92627.75;;;24.52;66.59
13033;BME280;6583;42.632;23.298;2022-07-25T02:05:35;92630.88;;;24.50;67.10
13033;BME280;6583;42.632;23.298;2022-07-25T02:08:02;92628.16;;;24.50;67.30
13033;BME280;6583;42.632;23.298;2022-07-25T02:10:31;92628.56;;;24.52;67.45
13033;BME280;6583;42.632;23.298;2022-07-25T02:12:59;92630.47;;;24.52;66.70
13033;BME280;6583;42.632;23.298;2022-07-25T02:15:26;92615.00;;;24.52;67.32
13033;BME280;6583;42.632;23.298;2022-07-25T02:17:52;92621.56;;;24.51;67.40
13033;BME280;6583;42.632;23.298;2022-07-25T02:20:19;92622.78;;;24.54;66.77
13033;BME280;6583;42.632;23.298;2022-07-25T02:22:46;92626.66;;;24.56;66.79
13033;BME280;6583;42.632;23.298;2022-07-25T02:25:12;92619.72;;;24.59;66.27
13033;BME280;6583;42.632;23.298;2022-07-25T02:27:41;92624.38;;;24.62;65.92
13033;BME280;6583;42.632;23.298;2022-07-25T02:30:08;92624.78;;;24.61;66.23
13033;BME280;6583;42.632;23.298;2022-07-25T02:32:34;92630.56;;;24.59;66.56
13033;BME280;6583;42.632;23.298;2022-07-25T02:35:01;92629.81;;;24.62;66.12
13033;BME280;6583;42.632;23.298;2022-07-25T02:37:28;92630.59;;;24.63;66.12
13033;BME280;6583;42.632;23.298;2022-07-25T02:39:55;92626.31;;;24.62;66.01
13033;BME280;6583;42.632;23.298;2022-07-25T02:42:21;92626.31;;;24.62;65.66
13033;BME280;6583;42.632;23.298;2022-07-25T02:44:49;92619.34;;;24.61;66.14
13033;BME280;6583;42.632;23.298;2022-07-25T02:47:16;92622.44;;;24.59;66.67
13033;BME280;6583;42.632;23.298;2022-07-25T02:49:43;92623.94;;;24.56;66.06
13033;BME280;6583;42.632;23.298;2022-07-25T02:52:10;92625.16;;;24.59;66.47
13033;BME280;6583;42.632;23.298;2022-07-25T02:54:36;92619.69;;;24.55;65.97
13033;BME280;6583;42.632;23.298;2022-07-25T02:57:03;92619.69;;;24.55;66.51
13033;BME280;6583;42.632;23.298;2022-07-25T02:59:30;92621.19;;;24.53;66.07
13033;BME280;6583;42.632;23.298;2022-07-25T03:01:58;92614.97;;;24.49;66.37
13033;BME280;6583;42.632;23.298;2022-07-25T03:04:24;92620.00;;;24.50;65.53
13033;BME280;6583;42.632;23.298;2022-07-25T03:06:51;92615.69;;;24.46;65.99
13033;BME280;6583;42.632;23.298;2022-07-25T03:09:18;92619.53;;;24.41;65.95
13033;BME280;6583;42.632;23.298;2022-07-25T03:11:44;92617.19;;;24.39;66.08
13033;BME280;6583;42.632;23.298;2022-07-25T03:14:11;92613.25;;;24.33;66.46
13033;BME280;6583;42.632;23.298;2022-07-25T03:16:38;92618.69;;;24.33;65.06
13033;BME280;6583;42.632;23.298;2022-07-25T03:19:06;92622.50;;;24.29;66.13
13033;BME280;6583;42.632;23.298;2022-07-25T03:21:35;92617.47;;;24.27;64.73
13033;BME280;6583;42.632;23.298;2022-07-25T03:24:01;92623.69;;;24.28;64.99
13033;BME280;6583;42.632;23.298;2022-07-25T03:26:28;92618.63;;;24.26;65.28
13033;BME280;6583;42.632;23.298;2022-07-25T03:28:55;92620.16;;;24.27;65.54
13033;BME280;6583;42.632;23.298;2022-07-25T03:31:22;92629.50;;;24.30;65.83
13033;BME280;6583;42.632;23.298;2022-07-25T03:33:48;92629.88;;;24.28;65.98
13033;BME280;6583;42.632;23.298;2022-07-25T03:36:16;92622.47;;;24.25;66.19
13033;BME280;6583;42.632;23.298;2022-07-25T03:38:43;92630.56;;;24.21;66.02
13033;BME280;6583;42.632;23.298;2022-07-25T03:41:10;92627.13;;;24.25;66.23
13033;BME280;6583;42.632;23.298;2022-07-25T03:43:37;92633.28;;;24.21;65.78
13033;BME280;6583;42.632;23.298;2022-07-25T03:46:04;92623.56;;;24.17;65.73
13033;BME280;6583;42.632;23.298;2022-07-25T03:48:31;92619.34;;;24.19;66.02
13033;BME280;6583;42.632;23.298;2022-07-25T03:50:57;92623.91;;;24.15;65.87
13033;BME280;6583;42.632;23.298;2022-07-25T03:53:25;92627.84;;;24.18;66.12
13033;BME280;6583;42.632;23.298;2022-07-25T03:55:52;92627.44;;;24.16;66.23
13033;BME280;6583;42.632;23.298;2022-07-25T03:58:18;92635.59;;;24.19;65.75
13033;BME280;6583;42.632;23.298;2022-07-25T04:00:45;92632.47;;;24.17;66.56
13033;BME280;6583;42.632;23.298;2022-07-25T04:03:13;92636.34;;;24.16;66.86
13033;BME280;6583;42.632;23.298;2022-07-25T04:05:41;92635.16;;;24.14;66.43
13033;BME280;6583;42.632;23.298;2022-07-25T04:08:07;92637.47;;;24.15;66.91
13033;BME280;6583;42.632;23.298;2022-07-25T04:10:35;92641.78;;;24.20;66.58
13033;BME280;6583;42.632;23.298;2022-07-25T04:13:02;92630.22;;;24.23;66.46
13033;BME280;6583;42.632;23.298;2022-07-25T04:15:28;92631.00;;;24.27;67.15
13033;BME280;6583;42.632;23.298;2022-07-25T04:17:55;92627.91;;;24.25;67.09
13033;BME280;6583;42.632;23.298;2022-07-25T04:20:22;92625.16;;;24.21;67.46
13033;BME280;6583;42.632;23.298;2022-07-25T04:22:48;92621.72;;;24.25;67.68
13033;BME280;6583;42.632;23.298;2022-07-25T04:25:15;92628.66;;;24.26;68.45
13033;BME280;6583;42.632;23.298;2022-07-25T04:27:43;92631.00;;;24.27;68.01
13033;BME280;6583;42.632;23.298;2022-07-25T04:30:11;92634.53;;;24.28;67.53
13033;BME280;6583;42.632;23.298;2022-07-25T04:32:38;92624.09;;;24.30;68.72
13033;BME280;6583;42.632;23.298;2022-07-25T04:35:06;92624.47;;;24.32;66.97
13033;BME280;6583;42.632;23.298;2022-07-25T04:37:32;92624.09;;;24.30;66.15
13033;BME280;6583;42.632;23.298;2022-07-25T04:40:00;92625.63;;;24.31;66.49
13033;BME280;6583;42.632;23.298;2022-07-25T04:42:27;92624.50;;;24.35;67.07
13033;BME280;6583;42.632;23.298;2022-07-25T04:44:55;92620.69;;;24.40;67.56
13033;BME280;6583;42.632;23.298;2022-07-25T04:47:21;92626.19;;;24.47;68.59
13033;BME280;6583;42.632;23.298;2022-07-25T04:49:48;92628.56;;;24.52;67.23
13033;BME280;6583;42.632;23.298;2022-07-25T04:52:15;92621.25;;;24.56;67.54
13033;BME280;6583;42.632;23.298;2022-07-25T04:54:41;92624.47;;;24.69;65.85
13033;BME280;6583;42.632;23.298;2022-07-25T04:57:08;92628.03;;;24.81;64.42
13033;BME280;6583;42.632;23.298;2022-07-25T04:59:35;92624.63;;;24.91;64.48
13033;BME280;6583;42.632;23.298;2022-07-25T05:02:03;92630.09;;;24.98;64.34
13033;BME280;6583;42.632;23.298;2022-07-25T05:04:29;92627.06;;;25.07;62.90
13033;BME280;6583;42.632;23.298;2022-07-25T05:06:56;92627.50;;;25.12;63.03
13033;BME280;6583;42.632;23.298;2022-07-25T05:09:23;92633.00;;;25.23;63.78
13033;BME280;6583;42.632;23.298;2022-07-25T05:11:50;92628.44;;;25.38;62.53
13033;BME280;6583;42.632;23.298;2022-07-25T05:14:16;92629.63;;;25.44;62.11
13033;BME280;6583;42.632;23.298;2022-07-25T05:16:43;92630.44;;;25.52;61.85
13033;BME280;6583;42.632;23.298;2022-07-25T05:19:11;92639.06;;;25.61;61.58
13033;BME280;6583;42.632;23.298;2022-07-25T05:21:38;92630.53;;;25.70;61.70
13033;BME280;6583;42.632;23.298;2022-07-25T05:24:05;92635.22;;;25.73;60.67
13033;BME280;6583;42.632;23.298;2022-07-25T05:26:32;92637.97;;;25.77;60.94
13033;BME280;6583;42.632;23.298;2022-07-25T05:28:58;92641.06;;;25.79;60.35
13033;BME280;6583;42.632;23.298;2022-07-25T05:31:25;92639.94;;;25.87;60.63
13033;BME280;6583;42.632;23.298;2022-07-25T05:33:52;92648.50;;;25.89;60.38
13033;BME280;6583;42.632;23.298;2022-07-25T05:36:20;92639.13;;;25.86;60.13
13033;BME280;6583;42.632;23.298;2022-07-25T05:38:46;92642.25;;;25.85;58.52
13033;BME280;6583;42.632;23.298;2022-07-25T05:41:13;92641.09;;;25.86;59.43
13033;BME280;6583;42.632;23.298;2022-07-25T05:43:40;92642.25;;;25.85;58.88
13033;BME280;6583;42.632;23.298;2022-07-25T05:46:10;92632.94;;;25.86;59.35
13033;BME280;6583;42.632;23.298;2022-07-25T05:48:37;92637.63;;;25.89;59.25
13033;BME280;6583;42.632;23.298;2022-07-25T05:51:04;92636.06;;;25.92;58.76
13033;BME280;6583;42.632;23.298;2022-07-25T05:53:32;92628.69;;;25.92;58.42
13033;BME280;6583;42.632;23.298;2022-07-25T05:55:59;92638.03;;;25.95;58.70
13033;BME280;6583;42.632;23.298;2022-07-25T05:58:26;92627.88;;;25.88;58.39
13033;BME280;6583;42.632;23.298;2022-07-25T06:00:52;92625.56;;;25.90;58.64
13033;BME280;6583;42.632;23.298;2022-07-25T06:03:19;92629.84;;;25.91;59.27
13033;BME280;6583;42.632;23.298;2022-07-25T06:05:46;92631.47;;;25.96;60.02
13033;BME280;6583;42.632;23.298;2022-07-25T06:08:13;92626.03;;;25.96;59.26
13033;BME280;6583;42.632;23.298;2022-07-25T06:10:41;92621.75;;;26.02;58.67
13033;BME280;6583;42.632;23.298;2022-07-25T06:13:08;92623.72;;;26.12;60.11
13033;BME280;6583;42.632;23.298;2022-07-25T06:15:35;92626.06;;;26.21;59.35
13033;BME280;6583;42.632;23.298;2022-07-25T06:18:01;92622.22;;;26.36;57.25
13033;BME280;6583;42.632;23.298;2022-07-25T06:20:28;92623.81;;;26.55;58.32
13033;BME280;6583;42.632;23.298;2022-07-25T06:22:55;92621.50;;;26.68;58.14
13033;BME280;6583;42.632;23.298;2022-07-25T06:25:21;92626.56;;;26.80;57.72
13033;BME280;6583;42.632;23.298;2022-07-25T06:27:50;92636.31;;;26.96;56.15
13033;BME280;6583;42.632;23.298;2022-07-25T06:30:16;92628.50;;;27.16;54.22
13033;BME280;6583;42.632;23.298;2022-07-25T06:32:43;92619.94;;;27.32;53.75
13033;BME280;6583;42.632;23.298;2022-07-25T06:35:09;92635.47;;;27.46;53.13
13033;BME280;6583;42.632;23.298;2022-07-25T06:37:36;92633.88;;;27.59;54.20
13033;BME280;6583;42.632;23.298;2022-07-25T06:40:05;92633.44;;;27.75;53.62
13033;BME280;6583;42.632;23.298;2022-07-25T06:42:32;92630.69;;;27.93;53.27
13033;BME280;6583;42.632;23.298;2022-07-25T06:45:05;92631.00;;;28.06;51.50
13033;BME280;6583;42.632;23.298;2022-07-25T06:47:31;92630.94;;;28.17;51.95
13033;BME280;6583;42.632;23.298;2022-07-25T06:49:58;92625.88;;;28.22;51.71
13033;BME280;6583;42.632;23.298;2022-07-25T06:52:25;92628.47;;;28.44;51.73
13033;BME280;6583;42.632;23.298;2022-07-25T06:54:51;92624.16;;;28.50;50.89
13033;BME280;6583;42.632;23.298;2022-07-25T06:57:18;92622.53;;;28.60;48.09
13033;BME280;6583;42.632;23.298;2022-07-25T06:59:45;92625.59;;;28.73;49.41
13033;BME280;6583;42.632;23.298;2022-07-25T07:02:13;92621.63;;;28.77;49.35
13033;BME280;6583;42.632;23.298;2022-07-25T07:04:40;92618.06;;;28.84;49.42
13033;BME280;6583;42.632;23.298;2022-07-25T07:07:07;92621.97;;;28.86;48.76
13033;BME280;6583;42.632;23.298;2022-07-25T07:09:33;92616.84;;;28.92;48.36
13033;BME280;6583;42.632;23.298;2022-07-25T07:12:00;92622.56;;;29.05;48.45
13033;BME280;6583;42.632;23.298;2022-07-25T07:14:27;92622.31;;;28.92;47.73
13033;BME280;6583;42.632;23.298;2022-07-25T07:16:53;92627.63;;;29.06;46.41
13033;BME280;6583;42.632;23.298;2022-07-25T07:19:21;92621.25;;;29.24;47.21
13033;BME280;6583;42.632;23.298;2022-07-25T07:21:49;92625.78;;;29.41;45.84
13033;BME280;6583;42.632;23.298;2022-07-25T07:24:16;92621.78;;;29.50;44.27
13033;BME280;6583;42.632;23.298;2022-07-25T07:26:42;92632.81;;;29.42;45.49
13033;BME280;6583;42.632;23.298;2022-07-25T07:29:09;92623.47;;;29.40;43.39
13033;BME280;6583;42.632;23.298;2022-07-25T07:31:36;92633.66;;;29.36;44.24
13033;BME280;6583;42.632;23.298;2022-07-25T07:34:02;92626.50;;;29.49;44.11
13033;BME280;6583;42.632;23.298;2022-07-25T07:36:30;92618.19;;;29.60;44.25
13033;BME280;6583;42.632;23.298;2022-07-25T07:38:57;92616.53;;;29.70;42.73
13033;BME280;6583;42.632;23.298;2022-07-25T07:41:24;92620.72;;;29.81;42.98
13033;BME280;6583;42.632;23.298;2022-07-25T07:43:50;92623.00;;;29.87;42.69
13033;BME280;6583;42.632;23.298;2022-07-25T07:46:17;92618.97;;;29.95;41.87
13033;BME280;6583;42.632;23.298;2022-07-25T07:48:43;92619.28;;;30.04;40.88
13033;BME280;6583;42.632;23.298;2022-07-25T07:51:11;92628.88;;;30.16;40.31
13033;BME280;6583;42.632;23.298;2022-07-25T07:53:39;92620.19;;;30.25;40.98
13033;BME280;6583;42.632;23.298;2022-07-25T07:56:23;92622.06;;;30.28;40.81
13033;BME280;6583;42.632;23.298;2022-07-25T07:58:49;92628.28;;;30.35;40.35
13033;BME280;6583;42.632;23.298;2022-07-25T08:01:16;92616.94;;;30.33;40.04
13033;BME280;6583;42.632;23.298;2022-07-25T08:03:43;92622.44;;;30.30;40.79
13033;BME280;6583;42.632;23.298;2022-07-25T08:06:09;92617.81;;;30.27;39.73
13033;BME280;6583;42.632;23.298;2022-07-25T08:08:36;92629.75;;;30.40;41.34
13033;BME280;6583;42.632;23.298;2022-07-25T08:11:04;92628.41;;;30.52;40.10
13033;BME280;6583;42.632;23.298;2022-07-25T08:13:31;92623.22;;;30.61;39.75
13033;BME280;6583;42.632;23.298;2022-07-25T08:16:00;92615.72;;;30.65;38.72
13033;BME280;6583;42.632;23.298;2022-07-25T08:18:28;92617.81;;;30.81;39.34
13033;BME280;6583;42.632;23.298;2022-07-25T08:20:55;92616.28;;;30.80;39.50
13033;BME280;6583;42.632;23.298;2022-07-25T08:23:23;92620.81;;;30.90;39.49
13033;BME280;6583;42.632;23.298;2022-07-25T08:25:52;92616.09;;;30.91;39.05
13033;BME280;6583;42.632;23.298;2022-07-25T08:28:20;92623.13;;;30.92;38.71
13033;BME280;6583;42.632;23.298;2022-07-25T08:30:47;92616.84;;;30.95;39.35
13033;BME280;6583;42.632;23.298;2022-07-25T08:33:13;92627.13;;;30.87;38.28
13033;BME280;6583;42.632;23.298;2022-07-25T08:35:45;92627.19;;;30.84;38.01
13033;BME280;6583;42.632;23.298;2022-07-25T08:38:12;92628.47;;;30.75;37.38
13033;BME280;6583;42.632;23.298;2022-07-25T08:40:38;92616.84;;;30.68;36.36
13033;BME280;6583;42.632;23.298;2022-07-25T08:43:10;92622.38;;;30.64;36.83
13033;BME280;6583;42.632;23.298;2022-07-25T08:45:42;92611.81;;;30.63;37.30
13033;BME280;6583;42.632;23.298;2022-07-25T08:48:09;92627.50;;;30.62;36.67
13033;BME280;6583;42.632;23.298;2022-07-25T08:50:37;92623.47;;;30.70;37.45
13033;BME280;6583;42.632;23.298;2022-07-25T08:53:04;92618.59;;;30.82;36.34
13033;BME280;6583;42.632;23.298;2022-07-25T08:55:31;92622.88;;;30.83;36.90
13033;BME280;6583;42.632;23.298;2022-07-25T08:57:58;92614.13;;;30.91;37.27
13033;BME280;6583;42.632;23.298;2022-07-25T09:00:26;92619.53;;;30.99;36.59
13033;BME280;6583;42.632;23.298;2022-07-25T09:02:57;92625.44;;;30.70;37.27
13033;BME280;6583;42.632;23.298;2022-07-25T09:05:24;92616.59;;;30.59;37.48
13033;BME280;6583;42.632;23.298;2022-07-25T09:07:52;92619.97;;;30.43;37.20
13033;BME280;6583;42.632;23.298;2022-07-25T09:10:20;92610.19;;;30.42;38.75
13033;BME280;6583;42.632;23.298;2022-07-25T09:12:51;92609.31;;;30.48;36.63
13033;BME280;6583;42.632;23.298;2022-07-25T09:15:23;92602.59;;;30.53;37.30
13033;BME280;6583;42.632;23.298;2022-07-25T09:17:50;92606.47;;;30.55;37.03
13033;BME280;6583;42.632;23.298;2022-07-25T09:20:19;92605.28;;;30.56;35.26
13033;BME280;6583;42.632;23.298;2022-07-25T09:22:47;92597.88;;;30.53;35.93
13033;BME280;6583;42.632;23.298;2022-07-25T09:25:21;92597.00;;;30.60;35.96
13033;BME280;6583;42.632;23.298;2022-07-25T09:27:48;92607.38;;;30.45;36.86
13033;BME280;6583;42.632;23.298;2022-07-25T09:30:16;92604.28;;;30.43;35.99
13033;BME280;6583;42.632;23.298;2022-07-25T09:32:42;92610.59;;;30.40;37.15
13033;BME280;6583;42.632;23.298;2022-07-25T09:35:09;92600.84;;;30.39;37.91
13033;BME280;6583;42.632;23.298;2022-07-25T09:37:38;92604.94;;;30.54;37.86
13033;BME280;6583;42.632;23.298;2022-07-25T09:40:13;92596.38;;;30.76;37.33
13033;BME280;6583;42.632;23.298;2022-07-25T09:42:41;92591.78;;;30.97;34.96
13033;BME280;6583;42.632;23.298;2022-07-25T09:45:12;92603.75;;;31.06;36.39
13033;BME280;6583;42.632;23.298;2022-07-25T09:47:52;92610.34;;;31.09;36.94
13033;BME280;6583;42.632;23.298;2022-07-25T09:50:19;92601.84;;;31.03;36.03
13033;BME280;6583;42.632;23.298;2022-07-25T09:52:49;92596.53;;;31.16;36.48
13033;BME280;6583;42.632;23.298;2022-07-25T09:55:16;92590.56;;;31.21;36.17
13033;BME280;6583;42.632;23.298;2022-07-25T09:57:43;92590.44;;;31.28;34.51
13033;BME280;6583;42.632;23.298;2022-07-25T10:00:13;92598.31;;;31.26;35.68
13033;BME280;6583;42.632;23.298;2022-07-25T10:02:46;92591.78;;;31.40;36.24
13033;BME280;6583;42.632;23.298;2022-07-25T10:05:15;92594.38;;;31.27;35.70
13033;BME280;6583;42.632;23.298;2022-07-25T10:07:48;92584.38;;;31.17;35.66
13033;BME280;6583;42.632;23.298;2022-07-25T10:10:21;92586.41;;;31.13;36.12
13033;BME280;6583;42.632;23.298;2022-07-25T10:13:04;92586.91;;;31.08;37.30
13033;BME280;6583;42.632;23.298;2022-07-25T10:15:48;92576.50;;;30.72;36.39
13033;BME280;6583;42.632;23.298;2022-07-25T10:18:16;92582.09;;;30.65;37.60
13033;BME280;6583;42.632;23.298;2022-07-25T10:20:43;92574.41;;;30.56;38.22
13033;BME280;6583;42.632;23.298;2022-07-25T10:23:23;92578.19;;;30.62;38.84
13033;BME280;6583;42.632;23.298;2022-07-25T10:26:00;92577.53;;;30.54;37.34
13033;BME280;6583;42.632;23.298;2022-07-25T10:28:36;92580.00;;;30.45;38.09
13033;BME280;6583;42.632;23.298;2022-07-25T10:31:14;92578.69;;;30.26;38.44
13033;BME280;6583;42.632;23.298;2022-07-25T10:33:41;92574.47;;;30.22;37.88
13033;BME280;6583;42.632;23.298;2022-07-25T10:36:09;92575.28;;;30.18;37.65
13033;BME280;6583;42.632;23.298;2022-07-25T10:38:38;92573.41;;;30.12;37.05
13033;BME280;6583;42.632;23.298;2022-07-25T10:41:06;92568.34;;;30.10;36.46
13033;BME280;6583;42.632;23.298;2022-07-25T10:43:38;92566.31;;;30.18;36.35
13033;BME280;6583;42.632;23.298;2022-07-25T10:46:10;92558.00;;;30.25;35.78
13033;BME280;6583;42.632;23.298;2022-07-25T10:48:38;92558.63;;;30.36;34.99
13033;BME280;6583;42.632;23.298;2022-07-25T10:51:07;92559.78;;;30.39;37.20
13033;BME280;6583;42.632;23.298;2022-07-25T10:53:35;92555.22;;;30.29;36.63
13033;BME280;6583;42.632;23.298;2022-07-25T10:56:05;92559.59;;;30.23;37.45
13033;BME280;6583;42.632;23.298;2022-07-25T10:58:43;92563.50;;;29.94;36.57
13033;BME280;6583;42.632;23.298;2022-07-25T11:01:11;92553.72;;;29.62;37.85
13033;BME280;6583;42.632;23.298;2022-07-25T11:03:40;92554.31;;;29.43;37.81
13033;BME280;6583;42.632;23.298;2022-07-25T11:06:10;92553.09;;;29.48;39.29
13033;BME280;6583;42.632;23.298;2022-07-25T11:08:36;92553.00;;;29.55;37.96
13033;BME280;6583;42.632;23.298;2022-07-25T11:11:05;92550.19;;;29.62;38.01
13033;BME280;6583;42.632;23.298;2022-07-25T11:13:35;92543.09;;;29.68;37.91
13033;BME280;6583;42.632;23.298;2022-07-25T11:16:03;92548.91;;;29.70;37.91
13033;BME280;6583;42.632;23.298;2022-07-25T11:18:31;92538.34;;;29.72;38.72
13033;BME280;6583;42.632;23.298;2022-07-25T11:20:59;92533.22;;;29.74;35.97
13033;BME280;6583;42.632;23.298;2022-07-25T11:23:26;92532.06;;;29.75;36.57
13033;BME280;6583;42.632;23.298;2022-07-25T11:26:05;92537.16;;;29.77;38.40
13033;BME280;6583;42.632;23.298;2022-07-25T11:28:41;92524.66;;;29.72;36.67
13033;BME280;6583;42.632;23.298;2022-07-25T11:31:09;92528.66;;;29.64;36.58
13033;BME280;6583;42.632;23.298;2022-07-25T11:33:37;92529.88;;;29.63;37.04
13033;BME280;6583;42.632;23.298;2022-07-25T11:36:05;92533.06;;;29.58;37.00
13033;BME280;6583;42.632;23.298;2022-07-25T11:38:32;92522.34;;;29.71;36.31
13033;BME280;6583;42.632;23.298;2022-07-25T11:40:59;92519.06;;;29.87;33.67
13033;BME280;6583;42.632;23.298;2022-07-25T11:43:27;92500.88;;;30.00;34.11
13033;BME280;6583;42.632;23.298;2022-07-25T11:45:58;92516.84;;;30.05;35.98
13033;BME280;6583;42.632;23.298;2022-07-25T11:48:31;92513.28;;;30.08;35.92
13033;BME280;6583;42.632;23.298;2022-07-25T11:51:08;92513.59;;;29.87;34.75
13033;BME280;6583;42.632;23.298;2022-07-25T11:53:43;92510.94;;;29.79;36.08
13033;BME280;6583;42.632;23.298;2022-07-25T11:56:15;92508.63;;;29.74;36.63
13033;BME280;6583;42.632;23.298;2022-07-25T11:58:55;92511.09;;;29.65;35.71
13033;BME280;6583;42.632;23.298;2022-07-25T12:01:23;92509.06;;;29.69;35.71
13033;BME280;6583;42.632;23.298;2022-07-25T12:03:50;92503.56;;;29.76;34.91
13033;BME280;6583;42.632;23.298;2022-07-25T12:06:17;92508.47;;;29.89;33.67
13033;BME280;6583;42.632;23.298;2022-07-25T12:08:43;92498.50;;;30.02;33.79
13033;BME280;6583;42.632;23.298;2022-07-25T12:11:17;92485.56;;;30.06;35.01
13033;BME280;6583;42.632;23.298;2022-07-25T12:13:46;92494.47;;;30.10;35.34
13033;BME280;6583;42.632;23.298;2022-07-25T12:16:14;92492.38;;;29.94;36.08
13033;BME280;6583;42.632;23.298;2022-07-25T12:18:41;92489.44;;;29.78;36.26
13033;BME280;6583;42.632;23.298;2022-07-25T12:21:07;92488.75;;;29.70;36.67
13033;BME280;6583;42.632;23.298;2022-07-25T12:23:34;92488.13;;;29.59;37.60
13033;BME280;6583;42.632;23.298;2022-07-25T12:26:02;92495.84;;;29.64;37.97
13033;BME280;6583;42.632;23.298;2022-07-25T12:28:29;92500.16;;;29.65;37.12
13033;BME280;6583;42.632;23.298;2022-07-25T12:30:57;92491.94;;;29.65;37.02
13033;BME280;6583;42.632;23.298;2022-07-25T12:33:23;92486.47;;;29.65;37.41
13033;BME280;6583;42.632;23.298;2022-07-25T12:35:50;92481.00;;;29.65;37.29
13033;BME280;6583;42.632;23.298;2022-07-25T12:38:17;92482.94;;;29.68;36.56
13033;BME280;6583;42.632;23.298;2022-07-25T12:40:44;92483.66;;;29.72;35.70
13033;BME280;6583;42.632;23.298;2022-07-25T12:43:10;92477.81;;;29.70;35.43
13033;BME280;6583;42.632;23.298;2022-07-25T12:45:37;92466.03;;;29.77;35.36
13033;BME280;6583;42.632;23.298;2022-07-25T12:48:05;92465.22;;;29.80;35.96
13033;BME280;6583;42.632;23.298;2022-07-25T12:50:32;92470.66;;;29.84;36.28
13033;BME280;6583;42.632;23.298;2022-07-25T12:52:59;92472.22;;;29.81;36.23
13033;BME280;6583;42.632;23.298;2022-07-25T12:55:26;92471.47;;;29.80;36.28
13033;BME280;6583;42.632;23.298;2022-07-25T12:57:53;92458.88;;;29.87;35.02
13033;BME280;6583;42.632;23.298;2022-07-25T13:00:22;92462.44;;;29.84;34.45
13033;BME280;6583;42.632;23.298;2022-07-25T13:02:50;92457.31;;;29.86;34.77